Time;durP1;ratioP1;P1;durP2;ratioP2;P2;SDS_P1;SDS_P2;PMS_P1;PMS_P2;Temp;Humidity;BMP_temperature;BMP_pressure;BME280_temperature;BME280_humidity;BME280_pressure;Samples;Min_cycle;Max_cycle;Signal;HPM_P1;HPM_P2
2021/11/02 00:00:52;;;;;;;19.60;5.10;;;;;;;9.44;100.00;99794.31;4849625;29;20121;-81
2021/11/02 00:03:18;;;;;;;20.75;5.13;;;;;;;9.43;100.00;99808.81;4845198;29;20081;-80
2021/11/02 00:05:43;;;;;;;21.15;5.22;;;;;;;9.40;100.00;99800.16;4817201;29;20064;-80
2021/11/02 00:08:09;;;;;;;18.75;5.70;;;;;;;9.36;100.00;99795.41;4819146;29;20042;-80
2021/11/02 00:10:35;;;;;;;15.82;4.95;;;;;;;9.17;100.00;99773.00;4863175;29;20453;-81
2021/11/02 00:13:00;;;;;;;19.65;5.18;;;;;;;9.33;100.00;99793.16;4857963;29;20038;-81
2021/11/02 00:15:28;;;;;;;22.90;5.22;;;;;;;9.37;100.00;99805.97;4851554;29;20147;-81
2021/11/02 00:17:58;;;;;;;19.42;5.32;;;;;;;9.20;100.00;99777.94;4869624;29;20076;-81
2021/11/02 00:20:23;;;;;;;23.05;5.32;;;;;;;9.38;100.00;99817.53;4851494;29;20057;-80
2021/11/02 00:22:54;;;;;;;16.30;5.72;;;;;;;9.35;100.00;99810.72;4875892;29;20022;-81
2021/11/02 00:25:22;;;;;;;16.95;5.90;;;;;;;9.23;100.00;99801.69;4871442;29;20053;-80
2021/11/02 00:27:48;;;;;;;17.20;5.18;;;;;;;9.22;100.00;99785.81;4857541;29;20026;-82
2021/11/02 00:30:15;;;;;;;20.05;5.60;;;;;;;9.36;100.00;99806.97;4871560;29;20021;-81
2021/11/02 00:32:42;;;;;;;17.60;4.90;;;;;;;9.36;100.00;99809.66;4834075;29;20034;-81
2021/11/02 00:35:08;;;;;;;21.35;4.97;;;;;;;9.36;100.00;99803.47;4836277;29;20027;-81
2021/11/02 00:37:35;;;;;;;19.63;5.22;;;;;;;9.33;100.00;99803.91;4843834;29;20033;-81
2021/11/02 00:40:00;;;;;;;22.98;5.63;;;;;;;9.37;100.00;99810.47;4836972;29;20023;-81
2021/11/02 00:43:11;;;;;;;20.98;5.60;;;;;;;9.18;100.00;99788.09;4875641;29;20098;-80
2021/11/02 00:45:15;;;;;;;19.17;5.25;;;;;;;9.28;100.00;99795.69;4848786;29;20179;-80
2021/11/02 00:47:40;;;;;;;23.02;6.00;;;;;;;9.35;100.00;99808.03;4853186;29;20143;-80
2021/11/02 00:50:10;;;;;;;19.63;6.05;;;;;;;9.35;100.00;99813.41;4840782;29;20031;-81
2021/11/02 00:52:40;;;;;;;25.50;6.30;;;;;;;9.36;100.00;99817.72;4815949;29;20031;-80
2021/11/02 00:55:08;;;;;;;19.02;5.80;;;;;;;9.39;100.00;99814.59;4807973;29;20365;-81
2021/11/02 00:57:34;;;;;;;16.67;6.35;;;;;;;9.42;100.00;99816.03;4834510;29;20035;-81
2021/11/02 00:59:59;;;;;;;19.75;5.38;;;;;;;9.41;100.00;99814.41;4836609;29;20035;-81
2021/11/02 01:02:26;;;;;;;17.02;5.70;;;;;;;9.16;100.00;99780.25;4834785;29;20038;-80
2021/11/02 01:04:52;;;;;;;19.40;5.60;;;;;;;9.41;100.00;99811.72;4833763;29;20026;-81
2021/11/02 01:07:18;;;;;;;23.60;5.72;;;;;;;9.34;100.00;99798.34;4835471;29;20034;-81
2021/11/02 01:09:44;;;;;;;24.50;5.20;;;;;;;9.33;100.00;99793.97;4822391;29;20087;-80
2021/11/02 01:12:11;;;;;;;20.50;5.35;;;;;;;9.41;100.00;99811.72;4844125;29;20041;-81
2021/11/02 01:14:37;;;;;;;20.58;5.03;;;;;;;9.40;100.00;99797.47;4855955;29;20034;-80
2021/11/02 01:17:03;;;;;;;18.80;5.15;;;;;;;9.40;100.00;99808.22;4850643;29;20048;-81
2021/11/02 01:19:30;;;;;;;19.65;5.47;;;;;;;9.40;100.00;99810.06;4843223;29;20047;-81
2021/11/02 01:21:56;;;;;;;16.02;5.28;;;;;;;9.33;100.00;99793.16;4821352;29;20038;-81
2021/11/02 01:24:21;;;;;;;27.05;5.47;;;;;;;9.35;100.00;99802.66;4836661;29;20026;-81
2021/11/02 01:26:47;;;;;;;18.88;5.47;;;;;;;9.39;100.00;99814.59;4836244;29;20026;-81
2021/11/02 01:29:15;;;;;;;17.92;5.25;;;;;;;9.32;100.00;99795.03;4821890;29;20022;-81
2021/11/02 01:31:41;;;;;;;19.85;5.20;;;;;;;9.29;100.00;99798.16;4837573;29;20165;-81
2021/11/02 01:34:06;;;;;;;16.73;5.00;;;;;;;9.40;100.00;99808.22;4835334;29;20126;-82
2021/11/02 01:36:32;;;;;;;22.27;5.45;;;;;;;9.40;100.00;99808.22;4827591;29;20064;-81
2021/11/02 01:38:57;;;;;;;19.83;5.45;;;;;;;9.42;100.00;99813.34;4857903;29;20098;-81
2021/11/02 01:41:25;;;;;;;17.42;5.95;;;;;;;9.43;100.00;99806.13;4809394;29;20054;-82
2021/11/02 01:43:53;;;;;;;20.73;5.28;;;;;;;9.44;100.00;99795.19;4820093;29;20458;-81
2021/11/02 01:46:38;;;;;;;19.30;5.40;;;;;;;9.39;100.00;99797.69;4853018;29;20042;-81
2021/11/02 01:49:05;;;;;;;;;;;;;;;9.38;100.00;99804.91;4851843;29;20118;-81
2021/11/02 01:51:33;;;;;;;15.80;5.60;;;;;;;9.32;100.00;99784.28;4842771;29;20336;-81
2021/11/02 01:54:00;;;;;;;22.00;5.90;;;;;;;9.40;100.00;99800.16;4835251;29;20042;-81
2021/11/02 01:56:26;;;;;;;15.18;5.72;;;;;;;9.40;100.00;99800.16;4835911;29;20038;-81
2021/11/02 01:58:53;;;;;;;15.38;5.30;;;;;;;9.24;100.00;99770.28;4837218;29;20041;-81
2021/11/02 02:01:36;;;;;;;21.90;6.05;;;;;;;9.37;100.00;99797.06;4822502;29;20035;-80
2021/11/02 02:04:15;;;;;;;20.08;5.57;;;;;;;9.37;100.00;99805.97;4835028;29;20030;-80
2021/11/02 02:06:54;;;;;;;16.27;5.82;;;;;;;9.34;100.00;99794.84;4834767;29;20030;-81
2021/11/02 02:09:46;;;;;;;17.65;5.85;;;;;;;9.31;100.00;99801.44;4835958;29;20098;-81
2021/11/02 02:12:23;;;;;;;20.10;6.32;;;;;;;9.26;100.00;99801.25;4828808;29;20056;-81
2021/11/02 02:15:09;;;;;;;20.75;6.18;;;;;;;9.25;100.00;99796.13;4843611;29;20038;-81
2021/11/02 02:17:45;;;;;;;19.73;6.32;;;;;;;9.16;100.00;99790.16;4869389;29;20113;-80
2021/11/02 02:20:38;;;;;;;19.35;5.80;;;;;;;9.14;100.00;99784.22;4848312;29;20050;-80
2021/11/02 02:23:20;;;;;;;18.77;6.40;;;;;;;9.18;100.00;99802.34;4845118;29;20057;-81
2021/11/02 02:26:07;;;;;;;21.65;6.90;;;;;;;9.13;100.00;99788.72;4834194;29;20123;-80
2021/11/02 02:28:37;;;;;;;17.58;6.80;;;;;;;9.13;100.00;99788.72;4834165;29;20079;-80
2021/11/02 02:31:05;;;;;;;19.55;6.60;;;;;;;8.91;100.00;99753.34;4833128;29;20046;-79
2021/11/02 02:33:41;;;;;;;25.25;7.10;;;;;;;8.68;100.00;99727.03;4841865;29;20069;-81
2021/11/02 02:36:07;;;;;;;20.15;6.75;;;;;;;9.07;100.00;99789.59;4861561;29;20033;-81
2021/11/02 02:38:36;;;;;;;25.70;7.65;;;;;;;9.05;100.00;99789.00;4864815;29;20041;-81
2021/11/02 02:41:03;;;;;;;22.95;7.20;;;;;;;9.05;100.00;99796.22;4834428;29;20090;-81
2021/11/02 02:43:33;;;;;;;19.90;7.15;;;;;;;8.91;100.00;99776.69;4845875;29;20026;-81
2021/11/02 02:46:00;;;;;;;25.35;7.93;;;;;;;8.93;100.00;99788.00;4845953;29;20031;-81
2021/11/02 02:48:27;;;;;;;23.30;7.20;;;;;;;8.74;100.00;99759.41;4850494;29;20022;-80
2021/11/02 02:50:57;;;;;;;22.52;7.53;;;;;;;8.86;100.00;99782.66;4866236;29;20034;-81
2021/11/02 02:53:24;;;;;;;22.48;6.72;;;;;;;8.83;100.00;99775.03;4850879;29;20042;-81
2021/11/02 02:55:53;;;;;;;22.23;7.13;;;;;;;8.98;100.00;99803.47;4851655;29;20030;-81
2021/11/02 02:58:19;;;;;;;18.23;6.40;;;;;;;8.89;100.00;99801.03;4849982;29;20495;-80
2021/11/02 03:00:46;;;;;;;18.13;7.10;;;;;;;8.87;100.00;99784.34;4847194;29;20065;-81
2021/11/02 03:03:13;;;;;;;16.67;6.93;;;;;;;8.94;100.00;99805.78;4832356;29;20038;-80
2021/11/02 03:05:39;;;;;;;28.45;7.68;;;;;;;8.94;100.00;99803.09;4831289;29;20030;-80
2021/11/02 03:08:05;;;;;;;19.65;7.22;;;;;;;8.82;100.00;99800.22;4831348;29;20044;-80
2021/11/02 03:10:32;;;;;;;20.50;7.35;;;;;;;8.88;100.00;99803.94;4830805;29;20035;-80
2021/11/02 03:13:06;;;;;;;25.35;8.23;;;;;;;8.79;100.00;99797.16;4831619;29;20093;-80
2021/11/02 03:15:49;;;;;;;22.08;7.63;;;;;;;8.85;100.00;99812.41;4831600;29;20050;-81
2021/11/02 04:27:36;;;;;;;18.17;7.40;;;;;;;8.58;100.00;99831.25;4845212;29;20057;-80
2021/11/02 05:08:38;;;;;;;21.67;8.27;;;;;;;8.50;100.00;99858.28;4845817;29;20064;-80
2021/11/02 06:07:21;;;;;;;31.95;9.95;;;;;;;7.54;100.00;99712.22;4851844;29;20036;-82
2021/11/02 06:09:56;;;;;;;24.55;9.25;;;;;;;7.69;100.00;99732.63;4849261;29;20021;-82
2021/11/02 06:28:11;;;;;;;21.83;9.20;;;;;;;8.46;100.00;99863.22;4830230;29;20058;-82
2021/11/02 06:50:49;;;;;;;23.13;10.38;;;;;;;7.33;100.00;99709.75;4796741;30;20063;-82
2021/11/02 07:23:16;;;;;;;34.72;11.30;;;;;;;7.57;100.00;99771.72;4830297;29;20050;-82
2021/11/02 07:25:53;;;;;;;22.45;9.73;;;;;;;7.41;100.00;99752.34;4829067;29;20043;-81
2021/11/02 07:29:15;;;;;;;25.73;10.65;;;;;;;8.10;100.00;99858.28;4827948;29;20023;-82
2021/11/02 08:47:36;;;;;;;21.60;10.48;;;;;;;8.63;100.00;99818.03;4809648;29;20075;-81
2021/11/02 08:50:05;;;;;;;27.33;9.77;;;;;;;7.87;100.00;99697.16;4808727;29;20044;-82
2021/11/02 08:52:33;;;;;;;22.63;9.73;;;;;;;8.12;100.00;99713.41;4846352;29;20023;-82
2021/11/02 08:54:59;;;;;;;28.50;9.95;;;;;;;8.27;100.00;99739.94;4861075;29;20074;-82
2021/11/02 08:57:27;;;;;;;20.02;9.43;;;;;;;9.39;100.00;99903.22;4850373;29;20045;-81
2021/11/02 08:59:54;;;;;;;18.60;8.95;;;;;;;9.46;100.00;99910.41;4833988;29;20061;-83
2021/11/02 09:02:33;;;;;;;14.77;8.75;;;;;;;8.02;100.00;99673.66;4833911;29;20015;-80
2021/11/02 09:05:05;;;;;;;16.73;7.90;;;;;;;9.56;100.00;99906.22;4845725;29;20050;-82
2021/11/02 09:07:33;;;;;;;22.95;8.23;;;;;;;8.27;100.00;99705.91;4858049;29;20023;-83
2021/11/02 09:09:59;;;;;;;14.85;8.20;;;;;;;8.37;100.00;99716.19;5668830;24;20062;-82
2021/11/02 09:12:32;;;;;;;19.27;7.93;;;;;;;8.68;100.00;99759.22;4869276;29;20022;-83
2021/11/02 09:17:50;;;;;;;15.68;7.82;;;;;;;9.69;100.00;99910.69;4859894;24;20128;-81
2021/11/02 09:20:17;;;;;;;16.77;7.38;;;;;;;9.75;100.00;99915.22;4851023;29;20079;-82
2021/11/02 09:22:45;;;;;;;22.17;8.15;;;;;;;8.40;100.00;99697.03;5004571;24;20053;-82
2021/11/02 09:25:15;;;;;;;18.45;8.45;;;;;;;9.26;100.00;99835.34;4844371;29;20070;-82
2021/11/02 09:27:44;;;;;;;15.38;7.82;;;;;;;8.95;100.00;99780.56;4834445;29;20040;-82
2021/11/02 09:30:12;;;;;;;19.58;8.40;;;;;;;8.50;100.00;99691.22;4845864;29;20035;-82
2021/11/02 09:32:46;;;;;;;13.43;7.70;;;;;;;8.54;100.00;99692.44;4834849;29;20010;-82
2021/11/02 09:48:44;;;;;;;17.55;6.80;;;;;;;10.07;100.00;99891.88;5829177;24;20018;-76
2021/11/02 09:57:29;;;;;;;14.98;6.68;;;;;;;10.10;100.00;99886.06;5092355;24;20077;-83
2021/11/02 10:00:10;;;;;;;14.48;6.35;;;;;;;9.04;100.00;99720.25;4846142;29;20015;-82
2021/11/02 10:02:55;;;;;;;14.15;6.50;;;;;;;10.16;100.00;99884.34;4843273;29;20021;-83
2021/11/02 10:05:30;;;;;;;18.50;6.15;;;;;;;10.22;100.00;99885.34;4864693;29;20041;-84
2021/11/02 10:08:08;;;;;;;13.27;5.85;;;;;;;10.11;100.00;99866.19;4846316;29;20002;-82
2021/11/02 10:26:25;;;;;;;12.48;5.25;;;;;;;10.53;100.00;99876.44;5435653;24;20070;-83
2021/11/02 11:00:04;;;;;;;17.42;4.63;;;;;;;9.43;100.00;99678.06;5481965;24;20034;-83
2021/11/02 11:02:30;;;;;;;11.88;4.25;;;;;;;9.28;100.00;99651.56;4863890;29;20018;-82
2021/11/02 11:04:58;;;;;;;10.23;4.43;;;;;;;9.18;100.00;99633.25;5304975;24;20247;-83
2021/11/02 11:33:20;;;;;;;12.70;3.97;;;;;;;9.52;100.00;99623.03;5288966;24;20084;-81
2021/11/02 11:35:49;;;;;;;13.40;4.32;;;;;;;9.52;100.00;99620.34;5486791;24;21653;-83
2021/11/02 11:48:41;;;;;;;9.98;3.78;;;;;;;9.95;100.00;99685.84;5695044;24;20599;-83
2021/11/02 11:56:19;;;;;;;10.80;3.38;;;;;;;11.12;100.00;99860.66;5623099;24;20046;-83
2021/11/02 11:58:53;;;;;;;8.15;3.33;;;;;;;10.61;100.00;99765.00;4947006;24;20110;-81
2021/11/02 12:01:35;;;;;;;6.95;3.15;;;;;;;9.64;100.00;99623.16;4848550;29;20030;-83
2021/11/02 12:09:16;;;;;;;7.43;3.42;;;;;;;11.09;100.00;99844.94;5467942;24;20041;-82
2021/11/02 12:11:43;;;;;;;6.65;3.40;;;;;;;9.69;100.00;99634.03;5465426;24;20039;-82
2021/11/02 12:14:27;;;;;;;9.98;3.40;;;;;;;10.30;100.00;99727.28;4827755;29;20034;-83
2021/11/02 12:17:03;;;;;;;7.65;3.58;;;;;;;11.00;100.00;99836.38;4824836;29;20041;-82
2021/11/02 12:19:39;;;;;;;8.30;3.60;;;;;;;11.06;100.00;99840.88;4827872;29;20019;-82
2021/11/02 12:22:12;;;;;;;9.20;3.55;;;;;;;10.20;100.00;99718.88;4827963;29;20038;-82
2021/11/02 12:24:38;;;;;;;6.18;3.45;;;;;;;10.37;100.00;99735.28;4837079;29;20383;-82
2021/11/02 12:27:17;;;;;;;9.18;3.70;;;;;;;9.65;100.00;99622.09;4847289;29;20031;-82
2021/11/02 12:29:50;;;;;;;7.90;3.78;;;;;;;9.89;100.00;99674.94;4842242;29;20053;-83
2021/11/02 12:32:18;;;;;;;9.68;3.60;;;;;;;10.18;100.00;99704.03;4864657;29;20014;-81
2021/11/02 12:34:48;;;;;;;9.00;3.60;;;;;;;9.57;100.00;99611.63;4841714;29;20113;-82
2021/11/02 12:37:14;;;;;;;7.43;3.35;;;;;;;9.71;100.00;99633.81;4847200;29;20011;-82
2021/11/02 12:39:42;;;;;;;8.43;3.30;;;;;;;9.96;100.00;99660.63;4834389;29;20316;-82
2021/11/02 12:42:08;;;;;;;8.00;3.60;;;;;;;10.63;100.00;99754.81;5480924;24;20038;-82
2021/11/02 12:49:52;;;;;;;10.27;3.53;;;;;;;9.69;100.00;99619.78;4914427;24;20074;-80
2021/11/02 14:39:14;;;;;;;6.30;2.65;;;;;;;8.93;100.00;99633.22;4849333;29;19909;-83
2021/11/02 14:41:49;;;;;;;7.95;2.75;;;;;;;8.70;100.00;99611.50;4848893;29;20357;-83
2021/11/02 14:49:28;;;;;;;13.20;2.90;;;;;;;10.04;100.00;99830.47;5446715;24;20053;-82
2021/11/02 14:52:01;;;;;;;8.20;2.95;;;;;;;8.90;100.00;99662.34;4864212;29;20030;-81
2021/11/02 14:54:29;;;;;;;9.45;2.60;;;;;;;8.51;100.00;99607.91;4849257;29;20034;-83
2021/11/02 15:09:52;;;;;;;9.38;3.08;;;;;;;8.23;100.00;99592.97;5815113;24;20013;-78
2021/11/02 15:22:38;;;;;;;8.82;3.30;;;;;;;8.89;100.00;99744.69;5879850;24;20951;-77
2021/11/02 15:37:38;;;;;;;7.88;3.45;;;;;;;9.14;100.00;99829.84;2181529;24;20287;-81
2021/11/02 15:40:08;;;;;;;6.78;3.20;;;;;;;9.11;100.00;99831.06;4850327;29;20034;-82
2021/11/02 15:42:42;;;;;;;8.25;3.38;;;;;;;8.99;100.00;99835.44;5056015;24;20031;-83
2021/11/02 15:45:18;;;;;;;12.07;3.38;;;;;;;7.88;100.00;99656.78;4847695;29;20042;-82
2021/11/02 15:47:53;;;;;;;7.85;3.20;;;;;;;8.09;100.00;99690.53;4866550;29;20156;-83
2021/11/02 15:50:25;;;;;;;10.35;3.00;;;;;;;7.38;100.00;99575.31;4876093;29;20093;-81
2021/11/02 15:52:59;;;;;;;10.30;3.35;;;;;;;7.45;100.00;99603.72;4878739;29;20010;-81
2021/11/02 16:00:38;;;;;;;24.95;12.55;;;;;;;8.80;100.00;99821.06;4917897;24;20062;-81
2021/11/02 16:03:05;;;;;;;16.77;9.00;;;;;;;8.26;100.00;99740.97;5451710;24;20054;-82
2021/11/02 16:05:35;;;;;;;16.23;6.72;;;;;;;7.62;100.00;99646.94;5053068;24;20518;-80
2021/11/02 16:08:21;;;;;;;8.73;5.43;;;;;;;7.81;100.00;99681.91;4847986;29;20015;-83
2021/11/02 16:11:05;;;;;;;10.77;5.20;;;;;;;8.66;100.00;99814.09;4881022;29;20014;-82
2021/11/02 16:13:31;;;;;;;7.60;5.95;;;;;;;7.50;100.00;99660.13;4862009;29;20017;-83
2021/11/02 16:36:38;;;;;;;10.38;4.22;;;;;;;8.31;100.00;99833.13;5541363;24;20053;-81
2021/11/02 16:39:20;;;;;;;9.07;4.60;;;;;;;6.79;100.00;99593.03;4846738;29;20006;-81
2021/11/02 16:41:50;;;;;;;12.30;4.97;;;;;;;8.24;100.00;99818.88;4847038;29;20022;-82
2021/11/02 16:47:02;;;;;;;10.60;5.13;;;;;;;6.86;100.00;99617.94;5052916;24;20095;-83
2021/11/02 16:49:28;;;;;;;11.40;5.13;;;;;;;6.86;100.00;99622.47;5399660;24;20049;-84
2021/11/02 16:52:03;;;;;;;13.70;5.03;;;;;;;8.22;100.00;99826.34;4847400;29;20048;-81
2021/11/02 16:54:29;;;;;;;12.77;5.60;;;;;;;8.20;100.00;99821.16;5083424;24;20076;-81
2021/11/02 16:59:42;;;;;;;19.17;9.85;;;;;;;8.19;100.00;99813.34;5514247;24;20050;-83
2021/11/02 17:09:53;;;;;;;17.52;7.68;;;;;;;8.20;100.00;99823.03;4880342;24;20046;-82
2021/11/02 17:12:18;;;;;;;14.18;5.50;;;;;;;8.19;100.00;99818.72;4834641;29;20038;-81
2021/11/02 17:14:44;;;;;;;12.45;5.82;;;;;;;8.19;100.00;99821.38;4834979;29;20041;-80
2021/11/02 17:17:10;;;;;;;18.10;5.15;;;;;;;8.07;100.00;99802.41;4839791;29;20373;-81
2021/11/02 17:19:43;;;;;;;13.90;5.57;;;;;;;8.15;100.00;99823.66;4848350;29;20058;-80
2021/11/02 17:22:09;;;;;;;15.50;7.57;;;;;;;8.12;100.00;99813.34;4849269;29;20026;-81
2021/11/02 17:24:35;;;;;;;11.25;6.75;;;;;;;8.04;100.00;99807.38;4835587;29;20039;-80
2021/11/02 17:27:00;;;;;;;13.75;6.53;;;;;;;7.99;100.00;99805.31;4843653;29;20060;-81
2021/11/02 17:29:27;;;;;;;15.07;6.32;;;;;;;8.01;100.00;99813.97;4847098;29;20033;-81
2021/11/02 17:31:53;;;;;;;13.18;5.75;;;;;;;8.00;100.00;99804.28;4846466;29;20452;-80
2021/11/02 17:34:23;;;;;;;20.85;6.63;;;;;;;7.97;100.00;99805.50;4837666;29;20472;-81
2021/11/02 17:36:55;;;;;;;15.40;6.32;;;;;;;7.92;100.00;99799.97;4844658;29;20045;-81
2021/11/02 17:39:22;;;;;;;14.90;5.72;;;;;;;8.02;100.00;99812.13;4843324;29;20046;-81
2021/11/02 17:41:50;;;;;;;19.05;5.25;;;;;;;7.80;100.00;99782.03;4838256;29;20030;-81
2021/11/02 17:44:16;;;;;;;20.23;4.93;;;;;;;7.95;100.00;99810.28;4846321;29;20037;-81
2021/11/02 17:46:42;;;;;;;14.10;4.93;;;;;;;7.94;100.00;99813.13;4824793;29;20090;-82
2021/11/02 17:49:07;;;;;;;11.20;4.38;;;;;;;7.91;100.00;99814.41;4840018;29;20102;-80
2021/11/02 17:51:33;;;;;;;13.43;4.72;;;;;;;7.84;100.00;99810.06;4845077;29;20070;-80
2021/11/02 17:53:58;;;;;;;13.10;5.22;;;;;;;7.54;100.00;99763.06;4844619;29;20037;-80
2021/11/02 17:56:24;;;;;;;12.52;5.20;;;;;;;7.86;100.00;99816.84;4829466;29;20072;-80
2021/11/02 17:58:51;;;;;;;14.57;6.70;;;;;;;7.77;100.00;99802.00;4828351;29;20034;-81
2021/11/02 18:01:19;;;;;;;12.35;6.00;;;;;;;7.83;100.00;99811.09;4845436;29;20034;-80
2021/11/02 18:03:46;;;;;;;17.65;6.35;;;;;;;7.78;100.00;99811.69;4851697;29;20088;-81
2021/11/02 18:06:14;;;;;;;17.35;6.55;;;;;;;7.79;100.00;99808.00;4835679;29;20057;-80
2021/11/02 18:08:42;;;;;;;19.65;8.07;;;;;;;7.75;100.00;99806.78;4839003;29;20388;-81
2021/11/02 18:11:08;;;;;;;18.92;9.07;;;;;;;7.92;100.00;99828.63;4850982;29;20060;-80
2021/11/02 18:13:35;;;;;;;23.40;11.10;;;;;;;8.02;100.00;99825.53;4829835;29;20038;-79
2021/11/02 18:16:01;;;;;;;25.75;13.93;;;;;;;8.07;100.00;99836.44;4829768;29;20027;-81
2021/11/02 18:18:37;;;;;;;17.15;8.80;;;;;;;8.10;100.00;99838.69;4842313;29;20019;-81
2021/11/02 18:21:03;;;;;;;22.60;9.25;;;;;;;8.09;100.00;99827.16;4861106;29;20075;-82
2021/11/02 18:23:30;;;;;;;14.50;9.13;;;;;;;7.99;100.00;99797.28;4877653;29;20035;-82
2021/11/02 18:25:55;;;;;;;21.88;8.52;;;;;;;8.13;100.00;99819.53;5318760;24;19997;-82
2021/11/02 18:30:55;;;;;;;18.88;8.52;;;;;;;7.62;100.00;99754.03;4837384;29;20065;-82
2021/11/02 18:33:22;;;;;;;20.52;9.20;;;;;;;7.55;100.00;99734.47;4828096;29;20045;-81
2021/11/02 18:35:48;;;;;;;16.67;9.15;;;;;;;7.02;100.00;99649.63;4839052;29;20014;-82
2021/11/02 18:38:15;;;;;;;17.38;8.68;;;;;;;7.15;100.00;99664.03;4846014;29;20088;-82
2021/11/02 18:40:41;;;;;;;16.05;9.00;;;;;;;7.04;100.00;99636.84;4826870;29;20050;-82
2021/11/02 18:43:06;;;;;;;19.00;8.65;;;;;;;7.68;100.00;99758.56;4811178;29;20031;-80
2021/11/02 18:45:32;;;;;;;25.02;9.35;;;;;;;6.74;100.00;99607.00;4823016;29;20026;-80
2021/11/02 18:47:57;;;;;;;20.42;8.70;;;;;;;7.28;100.00;99693.47;4825407;29;20102;-79
2021/11/02 18:50:25;;;;;;;25.90;9.23;;;;;;;8.09;100.00;99821.81;4814292;29;20039;-81
2021/11/02 18:52:51;;;;;;;18.98;9.13;;;;;;;7.93;100.00;99796.25;4836056;29;20023;-81
2021/11/02 18:55:17;;;;;;;18.38;9.45;;;;;;;8.10;100.00;99822.63;4822725;29;20027;-80
2021/11/02 18:57:49;;;;;;;23.67;10.10;;;;;;;8.08;100.00;99830.88;4811117;29;20054;-80
2021/11/02 19:00:16;;;;;;;18.83;9.85;;;;;;;8.08;100.00;99830.03;4814973;29;20126;-80
2021/11/02 19:02:41;;;;;;;17.73;8.70;;;;;;;8.04;100.00;99828.81;4813180;29;20202;-80
2021/11/02 19:05:08;;;;;;;19.15;8.48;;;;;;;7.98;100.00;99822.44;4807199;29;20114;-80
2021/11/02 19:07:35;;;;;;;15.80;9.05;;;;;;;8.06;100.00;99826.75;4812307;29;20031;-80
2021/11/02 19:10:01;;;;;;;21.38;9.05;;;;;;;8.00;100.00;99818.50;4814049;29;20093;-80
2021/11/02 19:12:26;;;;;;;15.45;8.60;;;;;;;8.07;100.00;99834.56;4814530;29;20047;-80
2021/11/02 19:14:52;;;;;;;19.23;9.15;;;;;;;7.98;100.00;99819.75;4824405;29;20099;-79
2021/11/02 19:17:18;;;;;;;20.33;9.88;;;;;;;8.06;100.00;99835.63;4814021;29;20034;-81
2021/11/02 19:19:43;;;;;;;21.60;9.80;;;;;;;8.10;100.00;99841.38;4819144;29;20107;-80
2021/11/02 19:22:09;;;;;;;18.80;9.63;;;;;;;8.11;100.00;99840.34;4809054;29;20039;-80
2021/11/02 19:24:34;;;;;;;23.50;9.52;;;;;;;8.12;100.00;99844.69;4808902;29;20099;-80
2021/11/02 19:27:00;;;;;;;18.25;9.35;;;;;;;8.11;100.00;99838.50;4825119;29;20035;-80
2021/11/02 19:29:25;;;;;;;18.33;8.85;;;;;;;8.06;100.00;99837.47;4810014;29;20063;-81
2021/11/02 19:31:51;;;;;;;24.80;10.30;;;;;;;8.14;100.00;99839.94;4810306;29;20030;-80
2021/11/02 19:34:17;;;;;;;18.88;9.10;;;;;;;8.16;100.00;99832.50;4815226;29;20057;-78
2021/11/02 19:36:44;;;;;;;23.92;11.25;;;;;;;8.16;100.00;99835.19;4829775;29;20062;-81
2021/11/02 19:39:10;;;;;;;19.30;11.60;;;;;;;8.12;100.00;99828.59;4827627;29;21257;-81
2021/11/02 19:41:36;;;;;;;20.83;11.38;;;;;;;8.19;100.00;99845.50;4809725;29;20056;-79
2021/11/02 19:44:02;;;;;;;17.70;10.75;;;;;;;8.20;100.00;99847.16;4817510;29;20414;-80
2021/11/02 19:46:27;;;;;;;20.10;11.23;;;;;;;8.11;100.00;99826.94;4812329;29;20362;-79
2021/11/02 19:48:52;;;;;;;19.33;11.18;;;;;;;8.19;100.00;99840.97;4822778;29;20034;-80
2021/11/02 19:51:18;;;;;;;21.70;13.40;;;;;;;8.19;100.00;99848.19;4824018;29;20039;-79
2021/11/02 19:53:45;;;;;;;25.05;15.35;;;;;;;8.19;100.00;99835.59;4808495;29;20046;-79
2021/11/02 19:56:12;;;;;;;22.95;15.10;;;;;;;8.19;100.00;99845.50;4826727;29;20043;-80
2021/11/02 19:58:38;;;;;;;28.85;13.32;;;;;;;8.18;100.00;99838.50;4808424;29;20034;-79
2021/11/02 20:01:04;;;;;;;25.33;12.85;;;;;;;8.14;100.00;99842.59;4812192;29;20042;-80
2021/11/02 20:03:30;;;;;;;22.17;12.20;;;;;;;8.18;100.00;99850.03;4808621;29;20125;-79
2021/11/02 20:05:58;;;;;;;20.40;12.73;;;;;;;8.15;100.00;99846.97;4807457;29;20027;-80
2021/11/02 20:08:36;;;;;;;19.38;11.85;;;;;;;8.16;100.00;99854.78;4811261;29;20026;-80
2021/11/02 20:11:17;;;;;;;19.42;11.00;;;;;;;8.10;100.00;99839.53;4808585;29;20509;-80
2021/11/02 20:13:46;;;;;;;20.33;10.63;;;;;;;8.17;100.00;99844.88;4811779;29;20165;-80
2021/11/02 20:16:13;;;;;;;20.85;10.68;;;;;;;8.15;100.00;99838.91;4823692;29;20027;-80
2021/11/02 20:18:42;;;;;;;19.35;9.68;;;;;;;8.16;100.00;99835.19;4825274;29;20030;-80
2021/11/02 20:21:10;;;;;;;20.38;9.10;;;;;;;8.22;100.00;99843.22;4808555;29;20034;-80
2021/11/02 20:23:35;;;;;;;16.48;9.13;;;;;;;8.24;100.00;99840.31;4815747;29;20061;-83
2021/11/02 20:26:02;;;;;;;19.48;8.95;;;;;;;8.27;100.00;99842.59;4818037;29;20038;-80
2021/11/02 20:28:28;;;;;;;14.15;8.68;;;;;;;8.21;100.00;99843.41;4825893;29;20049;-80
2021/11/02 20:30:57;;;;;;;16.48;8.90;;;;;;;8.30;100.00;99852.09;4842869;29;20055;-79
2021/11/02 20:33:24;;;;;;;17.35;9.00;;;;;;;8.27;100.00;99842.59;4824112;29;20049;-81
2021/11/02 20:35:55;;;;;;;15.63;9.02;;;;;;;8.27;100.00;99850.63;4819802;29;20072;-81
2021/11/02 20:38:50;;;;;;;15.30;8.30;;;;;;;8.28;100.00;99851.47;4803490;29;20023;-80
2021/11/02 20:41:18;;;;;;;15.55;8.60;;;;;;;8.24;100.00;99848.38;4814013;29;20088;-80
2021/11/02 20:43:51;;;;;;;22.10;8.73;;;;;;;8.20;100.00;99855.19;4821200;29;20034;-79
2021/11/02 20:46:17;;;;;;;16.05;8.35;;;;;;;8.26;100.00;99861.59;4827603;29;20038;-79
2021/11/02 20:48:43;;;;;;;15.57;9.68;;;;;;;8.28;100.00;99854.13;4830981;29;20335;-80
2021/11/02 20:51:10;;;;;;;16.80;8.90;;;;;;;8.29;100.00;99855.81;4806963;29;20035;-80
2021/11/02 20:53:35;;;;;;;15.52;8.73;;;;;;;8.30;100.00;99852.91;4802009;29;20485;-80
2021/11/02 20:56:01;;;;;;;18.20;8.65;;;;;;;8.22;100.00;99843.22;4809247;29;20122;-80
2021/11/02 20:58:29;;;;;;;14.88;8.18;;;;;;;8.34;100.00;99853.31;4808263;29;20427;-79
2021/11/02 21:00:56;;;;;;;19.48;8.80;;;;;;;8.31;100.00;99846.53;4808512;29;20035;-79
2021/11/02 21:03:27;;;;;;;12.07;8.07;;;;;;;8.37;100.00;99853.72;4810870;29;20050;-80
2021/11/02 21:05:56;;;;;;;15.43;8.60;;;;;;;8.37;100.00;99858.25;4807615;29;20027;-79
2021/11/02 21:08:26;;;;;;;12.63;8.07;;;;;;;8.38;100.00;99865.31;4820049;29;20027;-80
2021/11/02 21:10:56;;;;;;;13.57;7.45;;;;;;;8.35;100.00;99863.03;4812594;29;20050;-80
2021/11/02 21:13:24;;;;;;;13.63;7.43;;;;;;;8.38;100.00;99859.97;4809900;29;20062;-79
2021/11/02 21:15:52;;;;;;;12.75;8.05;;;;;;;8.34;100.00;99854.13;4807137;29;20039;-80
2021/11/02 21:18:19;;;;;;;12.57;7.50;;;;;;;8.34;100.00;99853.31;4809169;29;20046;-80
2021/11/02 21:20:45;;;;;;;16.00;7.97;;;;;;;8.38;100.00;99859.97;4808957;29;20039;-79
2021/11/02 21:23:10;;;;;;;10.75;7.07;;;;;;;8.43;100.00;99862.81;4808509;29;20098;-79
2021/11/02 21:25:36;;;;;;;13.23;6.40;;;;;;;8.43;100.00;99862.81;4808792;29;20039;-79
2021/11/02 21:28:03;;;;;;;13.63;7.03;;;;;;;8.36;100.00;99841.34;4812990;29;20023;-78
2021/11/02 21:30:31;;;;;;;13.60;7.10;;;;;;;8.41;100.00;99855.00;4809184;29;20069;-78
2021/11/02 21:32:57;;;;;;;10.50;6.07;;;;;;;8.42;100.00;99866.56;4804598;29;20355;-79
2021/11/02 21:35:23;;;;;;;10.43;6.20;;;;;;;8.43;100.00;99869.00;4812348;29;20043;-79
2021/11/02 21:37:48;;;;;;;13.68;7.22;;;;;;;8.40;100.00;99856.00;4819617;29;20104;-79
2021/11/02 21:40:16;;;;;;;14.73;7.32;;;;;;;8.38;100.00;99855.41;4808984;29;20035;-79
2021/11/02 21:42:46;;;;;;;12.48;6.75;;;;;;;8.35;100.00;99855.81;4815566;29;20023;-79
2021/11/02 21:45:21;;;;;;;14.63;7.05;;;;;;;8.28;100.00;99846.94;4817243;29;20041;-79
2021/11/02 21:47:55;;;;;;;9.32;6.32;;;;;;;8.25;100.00;99850.03;4831260;29;20449;-79
2021/11/02 21:50:24;;;;;;;14.00;6.00;;;;;;;8.20;100.00;99844.47;4815050;29;20042;-79